Terminal Aerodrome Forecast
Issued by NWS Sioux Falls, SD

Home | Current Version | Previous Version | Graphics & Text | Print | Product List | Glossary Off
Versions: 1 2 3 4 5 6 7 8 9 10 11 12 13 14 15 16 17 18

000
FTUS43 KFSD 221100
TAFSUX
TAF
KSUX 221120Z 2212/2312 VRB03KT P6SM SKC
     FM221500 14008KT P6SM SKC
     FM222100 14011KT P6SM SCT120
     FM230400 14014G21KT P6SM BKN080 PROB30 2308/2312 -SHRA BKN060=

USA.gov is the U.S. government's official web portal to all federal, state and local government web resources and services.